Time;durP1;ratioP1;P1;durP2;ratioP2;P2;SDS_P1;SDS_P2;PMS_P1;PMS_P2;Temp;Humidity;BMP_temperature;BMP_pressure;BME280_temperature;BME280_humidity;BME280_pressure;Samples;Min_cycle;Max_cycle;Signal;HPM_P1;HPM_P2
2022/10/20 00:02:07;;;;;;;45.30;32.35;;;;;;;;;;9993533;28;20100;-71
2022/10/20 00:07:00;;;;;;;44.30;33.22;;;;;;;;;;9993612;28;20061;-71
2022/10/20 00:11:53;;;;;;;43.05;31.38;;;;;;;;;;9992958;28;20051;-77
2022/10/20 00:16:48;;;;;;;44.03;31.70;;;;;;;;;;9992557;28;20058;-72
2022/10/20 00:21:42;;;;;;;44.55;30.38;;;;;;;;;;9986008;28;20109;-72
2022/10/20 00:26:35;;;;;;;60.58;36.65;;;;;;;;;;9992230;28;20378;-72
2022/10/20 00:31:29;;;;;;;51.33;35.58;;;;;;;;;;9987891;28;20057;-72
2022/10/20 00:36:23;;;;;;;46.15;32.05;;;;;;;;;;9981685;28;20505;-72
2022/10/20 00:41:20;;;;;;;41.70;31.98;;;;;;;;;;9988719;28;20051;-72
2022/10/20 00:46:17;;;;;;;41.03;30.33;;;;;;;;;;9993460;28;20133;-72
2022/10/20 00:51:14;;;;;;;50.17;32.15;;;;;;;;;;9988507;28;20061;-72
2022/10/20 00:56:08;;;;;;;44.03;29.75;;;;;;;;;;9983364;28;20141;-72
2022/10/20 01:01:02;;;;;;;48.00;30.33;;;;;;;;;;9978937;28;20145;-72
2022/10/20 01:05:56;;;;;;;40.97;30.15;;;;;;;;;;9987604;28;20145;-71
2022/10/20 01:11:01;;;;;;;42.80;31.35;;;;;;;;;;9986920;28;20054;-71
2022/10/20 01:15:54;;;;;;;37.55;30.08;;;;;;;;;;10006697;28;20461;-72
2022/10/20 01:21:03;;;;;;;40.25;30.05;;;;;;;;;;9992005;28;20054;-72
2022/10/20 01:25:56;;;;;;;41.05;29.77;;;;;;;;;;9988635;28;20065;-72
2022/10/20 01:30:59;;;;;;;45.63;29.85;;;;;;;;;;9984635;28;20050;-71
2022/10/20 01:36:00;;;;;;;38.72;28.90;;;;;;;;;;9996820;28;20054;-73
2022/10/20 01:41:00;;;;;;;39.20;29.80;;;;;;;;;;9980698;28;20520;-73
2022/10/20 01:45:54;;;;;;;41.80;29.17;;;;;;;;;;9990147;28;20565;-73
2022/10/20 01:50:47;;;;;;;38.58;26.58;;;;;;;;;;9989123;28;20062;-72
2022/10/20 01:55:42;;;;;;;39.83;27.58;;;;;;;;;;9987542;28;20541;-72
2022/10/20 02:00:36;;;;;;;36.33;26.27;;;;;;;;;;9979036;28;20050;-72
2022/10/20 02:05:57;;;;;;;31.52;24.70;;;;;;;;;;9988815;28;20053;-72
2022/10/20 02:10:52;;;;;;;31.08;26.15;;;;;;;;;;9985474;28;20524;-71
2022/10/20 02:15:52;;;;;;;38.28;27.90;;;;;;;;;;9984698;28;20054;-69
2022/10/20 02:20:48;;;;;;;38.80;26.92;;;;;;;;;;9987684;28;20108;-70
2022/10/20 02:25:41;;;;;;;37.58;28.35;;;;;;;;;;9985793;28;20065;-70
2022/10/20 02:30:36;;;;;;;38.28;27.08;;;;;;;;;;9987790;28;20058;-70
2022/10/20 02:35:31;;;;;;;38.60;25.88;;;;;;;;;;10000365;28;20046;-70
2022/10/20 02:40:26;;;;;;;41.90;26.95;;;;;;;;;;9988351;28;20417;-70
2022/10/20 02:45:20;;;;;;;43.15;28.30;;;;;;;;;;9982330;28;20057;-70
2022/10/20 02:50:15;;;;;;;37.47;27.50;;;;;;;;;;9988236;28;20059;-69
2022/10/20 02:55:11;;;;;;;39.80;29.98;;;;;;;;;;9986370;28;20050;-70
2022/10/20 03:00:07;;;;;;;38.83;28.48;;;;;;;;;;9986339;28;20413;-71
2022/10/20 03:05:01;;;;;;;36.47;26.55;;;;;;;;;;9981156;28;20141;-71
2022/10/20 03:09:54;;;;;;;39.13;28.20;;;;;;;;;;9986970;28;20046;-72
2022/10/20 03:14:50;;;;;;;34.10;25.85;;;;;;;;;;9982835;28;20051;-70
2022/10/20 03:19:44;;;;;;;39.22;27.40;;;;;;;;;;9979175;28;20066;-70
2022/10/20 03:24:38;;;;;;;36.22;25.70;;;;;;;;;;9979655;28;20421;-70
2022/10/20 03:29:32;;;;;;;38.63;27.73;;;;;;;;;;9983865;28;20509;-71
2022/10/20 03:34:27;;;;;;;36.05;26.33;;;;;;;;;;9985238;28;20050;-71
2022/10/20 03:39:21;;;;;;;38.90;28.60;;;;;;;;;;9983629;28;20158;-71
2022/10/20 03:44:14;;;;;;;39.45;28.55;;;;;;;;;;9982530;28;20054;-71
2022/10/20 03:49:08;;;;;;;36.72;27.98;;;;;;;;;;9986984;28;20058;-70
2022/10/20 03:54:02;;;;;;;48.58;30.23;;;;;;;;;;9985333;28;20081;-69
2022/10/20 03:58:56;;;;;;;41.78;29.52;;;;;;;;;;9985136;28;20054;-71
2022/10/20 04:03:55;;;;;;;39.50;28.45;;;;;;;;;;9986268;28;20141;-71
2022/10/20 04:08:49;;;;;;;38.65;27.70;;;;;;;;;;9986848;28;20553;-69
2022/10/20 04:13:42;;;;;;;46.35;29.60;;;;;;;;;;9981959;28;20046;-70
2022/10/20 04:18:37;;;;;;;36.97;26.90;;;;;;;;;;9983013;28;20658;-69
2022/10/20 04:23:31;;;;;;;43.13;31.45;;;;;;;;;;9978868;28;20572;-69
2022/10/20 04:28:25;;;;;;;39.35;28.10;;;;;;;;;;9981453;28;20051;-73
2022/10/20 04:33:19;;;;;;;43.92;30.50;;;;;;;;;;9981681;28;20065;-69
2022/10/20 04:38:13;;;;;;;46.45;31.90;;;;;;;;;;9987550;28;20054;-70
2022/10/20 04:43:08;;;;;;;53.35;35.63;;;;;;;;;;9991923;28;20085;-70
2022/10/20 04:48:01;;;;;;;46.45;32.78;;;;;;;;;;9981913;28;20038;-70
2022/10/20 04:52:55;;;;;;;44.28;30.50;;;;;;;;;;9995443;28;20477;-69
2022/10/20 04:57:49;;;;;;;47.08;31.58;;;;;;;;;;9992027;28;20133;-72
2022/10/20 05:02:44;;;;;;;45.88;30.73;;;;;;;;;;9992561;28;20082;-72
2022/10/20 05:07:38;;;;;;;48.58;31.45;;;;;;;;;;9991568;28;20066;-73
2022/10/20 05:12:32;;;;;;;48.70;34.03;;;;;;;;;;9990953;28;20517;-72
2022/10/20 05:17:29;;;;;;;48.40;31.20;;;;;;;;;;9989543;28;20061;-71
2022/10/20 05:22:23;;;;;;;46.95;30.55;;;;;;;;;;9988654;28;20524;-72
2022/10/20 05:27:18;;;;;;;44.70;31.17;;;;;;;;;;9990271;28;20050;-70
2022/10/20 05:32:12;;;;;;;42.10;30.42;;;;;;;;;;10000602;28;20100;-70
2022/10/20 05:37:06;;;;;;;42.28;32.05;;;;;;;;;;9982134;28;20049;-70
2022/10/20 05:41:59;;;;;;;45.33;29.17;;;;;;;;;;9988958;28;20421;-70
2022/10/20 05:46:53;;;;;;;45.78;32.65;;;;;;;;;;9979877;28;20050;-70
2022/10/20 05:51:47;;;;;;;47.38;31.42;;;;;;;;;;9981676;28;20145;-68
2022/10/20 05:56:41;;;;;;;51.63;34.58;;;;;;;;;;9983958;28;20090;-72
2022/10/20 06:01:46;;;;;;;48.22;31.70;;;;;;;;;;9982565;28;20050;-71
2022/10/20 06:06:41;;;;;;;47.55;32.47;;;;;;;;;;9974264;28;20054;-70
2022/10/20 06:11:34;;;;;;;65.20;34.92;;;;;;;;;;9984819;28;20564;-72
2022/10/20 06:16:31;;;;;;;58.70;36.63;;;;;;;;;;9981930;28;20150;-74
2022/10/20 06:21:27;;;;;;;59.55;35.33;;;;;;;;;;9982895;28;20070;-72
2022/10/20 06:26:23;;;;;;;54.35;36.45;;;;;;;;;;9986297;28;20135;-74
2022/10/20 06:31:22;;;;;;;45.33;33.72;;;;;;;;;;9979792;28;20054;-73
2022/10/20 06:36:17;;;;;;;;;;;;;;;;;;9986949;28;20054;-72
2022/10/20 06:41:16;;;;;;;50.20;33.33;;;;;;;;;;9989344;28;19922;-73
2022/10/20 06:46:16;;;;;;;46.25;33.75;;;;;;;;;;9977888;28;20054;-74
2022/10/20 06:51:12;;;;;;;50.80;34.45;;;;;;;;;;9984585;28;20480;-72
2022/10/20 06:56:10;;;;;;;54.40;36.20;;;;;;;;;;9976485;28;20050;-72
2022/10/20 07:01:04;;;;;;;49.85;36.13;;;;;;;;;;9983350;28;20886;-74
2022/10/20 07:06:02;;;;;;;;;;;;;;;;;;9967972;28;20540;-71
2022/10/20 07:11:04;;;;;;;54.75;35.65;;;;;;;;;;9991212;28;20308;-73
2022/10/20 07:15:57;;;;;;;51.58;35.22;;;;;;;;;;9978027;28;20056;-71
2022/10/20 07:20:51;;;;;;;53.42;35.47;;;;;;;;;;9994671;28;20061;-72
2022/10/20 07:25:45;;;;;;;49.83;34.70;;;;;;;;;;9980660;28;20053;-71
2022/10/20 07:30:40;;;;;;;47.00;32.72;;;;;;;;;;9979768;28;20429;-71
2022/10/20 07:35:35;;;;;;;48.78;33.58;;;;;;;;;;9979275;28;20081;-71
2022/10/20 07:40:30;;;;;;;43.78;34.20;;;;;;;;;;9971343;28;20058;-72
2022/10/20 07:45:24;;;;;;;45.13;32.30;;;;;;;;;;9976441;28;20046;-74
2022/10/20 07:50:18;;;;;;;46.85;30.92;;;;;;;;;;9977112;28;20119;-71
2022/10/20 07:55:14;;;;;;;43.35;30.50;;;;;;;;;;9980126;28;20497;-71
2022/10/20 08:00:30;;;;;;;41.08;30.35;;;;;;;;;;9975299;28;20054;-72
2022/10/20 08:05:25;;;;;;;36.85;31.42;;;;;;;;;;9984141;28;20070;-69
2022/10/20 08:10:19;;;;;;;47.08;32.53;;;;;;;;;;9989260;28;20050;-71
2022/10/20 08:15:12;;;;;;;39.80;30.55;;;;;;;;;;9993088;28;20073;-70
2022/10/20 08:20:08;;;;;;;41.10;29.15;;;;;;;;;;9981293;28;20081;-77
2022/10/20 08:25:06;;;;;;;33.53;27.88;;;;;;;;;;9991310;28;20112;-81
2022/10/20 08:30:00;;;;;;;38.58;27.90;;;;;;;;;;9988660;28;20062;-80
2022/10/20 08:35:14;;;;;;;33.97;25.83;;;;;;;;;;9991395;28;20492;-79
2022/10/20 08:40:19;;;;;;;31.38;25.15;;;;;;;;;;9992276;28;20046;-75
2022/10/20 08:45:16;;;;;;;31.17;24.35;;;;;;;;;;9990914;28;20457;-75
2022/10/20 08:50:11;;;;;;;34.08;23.55;;;;;;;;;;9990861;28;20058;-72
2022/10/20 08:55:08;;;;;;;37.88;23.95;;;;;;;;;;9985791;28;20055;-72
2022/10/20 09:00:25;;;;;;;26.48;22.13;;;;;;;;;;9986101;28;20141;-72
2022/10/20 09:05:23;;;;;;;28.83;22.02;;;;;;;;;;9989334;28;20421;-73
2022/10/20 09:10:29;;;;;;;29.27;22.58;;;;;;;;;;10002530;28;20081;-73
2022/10/20 09:15:22;;;;;;;30.70;23.60;;;;;;;;;;9991653;28;20042;-73
2022/10/20 09:20:20;;;;;;;37.70;23.02;;;;;;;;;;9987041;28;20057;-73
2022/10/20 09:25:16;;;;;;;25.83;21.67;;;;;;;;;;9989955;28;20074;-73
2022/10/20 09:30:16;;;;;;;32.83;23.58;;;;;;;;;;10001256;28;20141;-73
2022/10/20 09:35:30;;;;;;;29.38;23.90;;;;;;;;;;9989671;28;20064;-73
2022/10/20 09:40:25;;;;;;;31.23;24.58;;;;;;;;;;10002784;28;20060;-75
2022/10/20 09:45:23;;;;;;;34.40;25.33;;;;;;;;;;9987080;28;20050;-75
2022/10/20 09:50:38;;;;;;;32.70;24.33;;;;;;;;;;9983669;28;20050;-71
2022/10/20 09:55:40;;;;;;;43.47;28.02;;;;;;;;;;9985826;28;20058;-72
2022/10/20 10:00:46;;;;;;;35.90;25.33;;;;;;;;;;9985423;28;20501;-72
2022/10/20 10:05:39;;;;;;;31.20;24.50;;;;;;;;;;9982559;28;20050;-73
2022/10/20 10:10:33;;;;;;;28.67;24.13;;;;;;;;;;9981124;28;20449;-72
2022/10/20 10:15:28;;;;;;;31.70;26.45;;;;;;;;;;9983685;28;20581;-73
2022/10/20 10:20:21;;;;;;;36.58;26.85;;;;;;;;;;9981843;28;20092;-72
2022/10/20 10:25:34;;;;;;;30.52;24.92;;;;;;;;;;9983146;28;20054;-72
2022/10/20 10:30:33;;;;;;;35.97;24.35;;;;;;;;;;9980381;28;20440;-72
2022/10/20 10:35:31;;;;;;;38.22;25.17;;;;;;;;;;9980103;28;20137;-72
2022/10/20 10:40:38;;;;;;;37.72;27.27;;;;;;;;;;9975032;28;20498;-72
2022/10/20 10:45:44;;;;;;;40.42;31.15;;;;;;;;;;9971734;28;20076;-72
2022/10/20 10:50:50;;;;;;;45.88;32.72;;;;;;;;;;9975402;28;20088;-72
2022/10/20 10:55:49;;;;;;;43.45;32.30;;;;;;;;;;9970604;28;20053;-72
2022/10/20 11:01:03;;;;;;;38.83;31.33;;;;;;;;;;9975574;28;20473;-71
2022/10/20 11:06:17;;;;;;;48.30;35.22;;;;;;;;;;9977891;28;20076;-70
2022/10/20 11:11:29;;;;;;;46.85;37.05;;;;;;;;;;9982802;28;20097;-70
2022/10/20 11:16:40;;;;;;;56.15;38.70;;;;;;;;;;9978814;28;20149;-71
2022/10/20 11:22:06;;;;;;;50.63;39.60;;;;;;;;;;9977404;28;20061;-70
2022/10/20 11:27:18;;;;;;;48.55;38.72;;;;;;;;;;9982102;28;20054;-70
2022/10/20 11:32:19;;;;;;;59.90;40.25;;;;;;;;;;9974552;28;20046;-76
2022/10/20 11:37:39;;;;;;;53.95;41.97;;;;;;;;;;9977000;28;20502;-76
2022/10/20 11:42:56;;;;;;;57.13;42.70;;;;;;;;;;9978603;28;20065;-75
2022/10/20 11:47:55;;;;;;;63.25;44.70;;;;;;;;;;9979976;28;20297;-76
2022/10/20 11:53:01;;;;;;;59.90;46.80;;;;;;;;;;9978959;28;20141;-77
2022/10/20 11:58:03;;;;;;;71.57;49.90;;;;;;;;;;9982973;28;20084;-78
2022/10/20 12:03:25;;;;;;;64.30;49.45;;;;;;;;;;9982210;28;20070;-76
2022/10/20 12:08:34;;;;;;;64.22;49.38;;;;;;;;;;9985313;28;20510;-76
2022/10/20 12:13:39;;;;;;;67.80;52.00;;;;;;;;;;9983076;28;20058;-76
2022/10/20 12:18:34;;;;;;;62.28;48.92;;;;;;;;;;9978609;28;20066;-76
2022/10/20 12:23:43;;;;;;;73.85;51.95;;;;;;;;;;9983603;28;20145;-79
2022/10/20 12:28:41;;;;;;;65.28;50.97;;;;;;;;;;9984535;28;20046;-76
2022/10/20 12:33:49;;;;;;;66.30;50.70;;;;;;;;;;9979553;28;20387;-77
2022/10/20 12:38:43;;;;;;;73.70;52.72;;;;;;;;;;9973062;28;20061;-75
2022/10/20 12:43:48;;;;;;;65.32;52.03;;;;;;;;;;9984213;28;20049;-76
2022/10/20 12:48:43;;;;;;;72.40;52.90;;;;;;;;;;9984971;28;20057;-77
2022/10/20 12:53:37;;;;;;;71.43;50.33;;;;;;;;;;9995724;28;20137;-73
2022/10/20 12:58:39;;;;;;;64.22;48.75;;;;;;;;;;10003987;28;20067;-81
2022/10/20 13:04:04;;;;;;;62.53;49.78;;;;;;;;;;10001282;28;20096;-80
2022/10/20 13:09:04;;;;;;;67.40;49.15;;;;;;;;;;9990497;28;20141;-81
2022/10/20 13:14:05;;;;;;;66.88;50.35;;;;;;;;;;9990420;28;20054;-74
2022/10/20 13:18:58;;;;;;;77.72;50.25;;;;;;;;;;9990843;28;20046;-74
2022/10/20 13:24:02;;;;;;;66.25;49.53;;;;;;;;;;9990969;28;20054;-73
2022/10/20 13:28:58;;;;;;;70.47;49.08;;;;;;;;;;9989711;28;20049;-73
2022/10/20 13:34:10;;;;;;;60.20;48.20;;;;;;;;;;9992248;28;20054;-73
2022/10/20 13:39:15;;;;;;;61.80;46.75;;;;;;;;;;9988418;28;20054;-73
2022/10/20 13:44:11;;;;;;;62.08;45.83;;;;;;;;;;9988568;28;20061;-73
2022/10/20 13:49:16;;;;;;;62.33;45.47;;;;;;;;;;9997188;28;20509;-74
2022/10/20 13:54:20;;;;;;;58.58;45.65;;;;;;;;;;9989674;28;20050;-76
2022/10/20 13:59:13;;;;;;;59.63;46.60;;;;;;;;;;9988625;28;20054;-76
2022/10/20 14:04:27;;;;;;;63.28;44.80;;;;;;;;;;9989680;28;20090;-77
2022/10/20 14:09:23;;;;;;;62.83;48.65;;;;;;;;;;9986700;28;20050;-76
2022/10/20 14:14:20;;;;;;;67.32;48.95;;;;;;;;;;9988553;28;20394;-77
2022/10/20 14:19:14;;;;;;;64.22;47.55;;;;;;;;;;9985747;28;20497;-77
2022/10/20 14:24:22;;;;;;;63.10;46.58;;;;;;;;;;9985218;28;20410;-77
2022/10/20 14:29:16;;;;;;;65.57;48.23;;;;;;;;;;9986304;28;20427;-76
2022/10/20 14:34:23;;;;;;;71.03;50.53;;;;;;;;;;9988750;28;20129;-76
2022/10/20 14:39:35;;;;;;;68.30;48.70;;;;;;;;;;9986914;28;20141;-76
2022/10/20 14:44:28;;;;;;;70.30;49.83;;;;;;;;;;9984931;28;20077;-77
2022/10/20 14:49:28;;;;;;;71.93;49.65;;;;;;;;;;9986941;28;20113;-76
2022/10/20 14:54:23;;;;;;;78.47;52.20;;;;;;;;;;10002765;28;20061;-76
2022/10/20 14:59:20;;;;;;;73.45;53.00;;;;;;;;;;9987260;28;20062;-75
2022/10/20 15:04:25;;;;;;;71.22;52.55;;;;;;;;;;9986762;28;20050;-75
2022/10/20 15:09:29;;;;;;;68.10;52.70;;;;;;;;;;9986968;28;20046;-74
2022/10/20 15:14:23;;;;;;;70.78;52.80;;;;;;;;;;9986730;28;20054;-75
2022/10/20 15:19:22;;;;;;;79.80;55.33;;;;;;;;;;9985737;28;20506;-75
2022/10/20 15:24:16;;;;;;;74.32;54.90;;;;;;;;;;9985983;28;20054;-75
2022/10/20 15:29:10;;;;;;;75.55;56.28;;;;;;;;;;9986296;28;20113;-75
2022/10/20 15:34:03;;;;;;;76.15;53.55;;;;;;;;;;9988393;28;20510;-76
2022/10/20 15:38:57;;;;;;;83.13;58.72;;;;;;;;;;9984119;28;20158;-75
2022/10/20 15:43:53;;;;;;;77.03;55.67;;;;;;;;;;9983019;28;20054;-76
2022/10/20 15:48:46;;;;;;;83.30;57.30;;;;;;;;;;9985192;28;20058;-76
2022/10/20 15:53:47;;;;;;;78.25;55.70;;;;;;;;;;9985010;28;20133;-76
2022/10/20 15:58:41;;;;;;;90.28;60.67;;;;;;;;;;9985903;28;20137;-76
2022/10/20 16:03:39;;;;;;;101.38;60.03;;;;;;;;;;9985465;28;20062;-77
2022/10/20 16:08:34;;;;;;;83.00;57.80;;;;;;;;;;9985292;28;20130;-76
2022/10/20 16:13:28;;;;;;;87.82;60.58;;;;;;;;;;9982499;28;20046;-77
2022/10/20 16:18:22;;;;;;;76.30;57.03;;;;;;;;;;9980682;28;20062;-75
2022/10/20 16:23:16;;;;;;;82.00;56.45;;;;;;;;;;9981461;28;20417;-77
2022/10/20 16:28:09;;;;;;;86.68;56.85;;;;;;;;;;9984375;28;20093;-77
2022/10/20 16:33:03;;;;;;;91.68;57.78;;;;;;;;;;9991476;28;20075;-77
2022/10/20 16:37:57;;;;;;;80.85;57.25;;;;;;;;;;9988388;28;20058;-77
2022/10/20 16:42:51;;;;;;;84.35;59.80;;;;;;;;;;9988943;28;20038;-77
2022/10/20 16:47:45;;;;;;;85.25;57.25;;;;;;;;;;9989348;28;20501;-75
2022/10/20 16:52:39;;;;;;;83.50;59.15;;;;;;;;;;9990243;28;20497;-78
2022/10/20 16:57:39;;;;;;;91.28;58.95;;;;;;;;;;9985202;28;20046;-76
2022/10/20 17:02:55;;;;;;;91.50;61.88;;;;;;;;;;9984769;28;20062;-76
2022/10/20 17:07:49;;;;;;;90.72;61.42;;;;;;;;;;9991747;28;20416;-76
2022/10/20 17:12:46;;;;;;;86.32;58.42;;;;;;;;;;9990944;28;20061;-77
2022/10/20 17:17:41;;;;;;;85.78;59.67;;;;;;;;;;10005903;28;20050;-76
2022/10/20 17:22:34;;;;;;;89.93;59.85;;;;;;;;;;9985011;28;20050;-77
2022/10/20 17:27:28;;;;;;;85.90;60.58;;;;;;;;;;9990289;28;20066;-77
2022/10/20 17:32:23;;;;;;;85.78;59.17;;;;;;;;;;9988384;28;21480;-76
2022/10/20 17:37:16;;;;;;;85.75;60.38;;;;;;;;;;9988145;28;20515;-78
2022/10/20 17:42:10;;;;;;;84.22;58.40;;;;;;;;;;9988714;28;20521;-76
2022/10/20 17:47:04;;;;;;;91.13;60.60;;;;;;;;;;9981957;28;20124;-77
2022/10/20 17:51:58;;;;;;;96.63;57.60;;;;;;;;;;9983207;28;20065;-77
2022/10/20 17:56:52;;;;;;;81.68;57.55;;;;;;;;;;9981391;28;20086;-77
2022/10/20 18:01:47;;;;;;;94.45;61.92;;;;;;;;;;9985066;28;20050;-77
2022/10/20 18:06:43;;;;;;;87.10;59.80;;;;;;;;;;9987505;28;20134;-78
2022/10/20 18:11:38;;;;;;;96.50;62.42;;;;;;;;;;9986132;28;20057;-78
2022/10/20 18:16:34;;;;;;;90.65;59.50;;;;;;;;;;9989047;28;20054;-77
2022/10/20 18:21:29;;;;;;;86.03;59.75;;;;;;;;;;9985680;28;20486;-79
2022/10/20 18:26:24;;;;;;;86.80;59.60;;;;;;;;;;9978557;28;20050;-80
2022/10/20 18:31:38;;;;;;;88.15;58.97;;;;;;;;;;9983371;28;20054;-77
2022/10/20 18:36:34;;;;;;;96.18;61.83;;;;;;;;;;9973866;28;20410;-75
2022/10/20 18:41:36;;;;;;;88.35;60.28;;;;;;;;;;9970803;28;20039;-77
2022/10/20 18:46:33;;;;;;;88.18;62.08;;;;;;;;;;9977450;28;20141;-77
2022/10/20 18:51:28;;;;;;;85.90;59.50;;;;;;;;;;9978346;28;20085;-78
2022/10/20 18:56:24;;;;;;;84.90;56.45;;;;;;;;;;9983276;28;20069;-77
2022/10/20 19:01:19;;;;;;;86.45;58.00;;;;;;;;;;9984568;28;20136;-73
2022/10/20 19:06:16;;;;;;;81.20;58.53;;;;;;;;;;9981521;28;20058;-80
2022/10/20 19:11:12;;;;;;;87.35;57.90;;;;;;;;;;9982477;28;20054;-82
2022/10/20 19:16:11;;;;;;;87.07;57.35;;;;;;;;;;9980943;28;20046;-86
2022/10/20 19:21:06;;;;;;;95.95;60.97;;;;;;;;;;9972049;28;20433;-83
2022/10/20 19:26:03;;;;;;;92.55;60.90;;;;;;;;;;9979215;28;20054;-81
2022/10/20 19:30:58;;;;;;;97.93;63.45;;;;;;;;;;9978259;28;20057;-81
2022/10/20 19:35:54;;;;;;;100.95;67.15;;;;;;;;;;9982502;28;20653;-80
2022/10/20 19:40:51;;;;;;;105.03;63.67;;;;;;;;;;9977223;28;20150;-81
2022/10/20 19:45:45;;;;;;;104.40;61.63;;;;;;;;;;9977523;28;20051;-85
2022/10/20 19:50:42;;;;;;;114.80;63.38;;;;;;;;;;9980605;28;20461;-83
2022/10/20 19:55:36;;;;;;;95.05;64.72;;;;;;;;;;9978330;28;20058;-83
2022/10/20 20:00:30;;;;;;;102.00;60.00;;;;;;;;;;9979119;28;20753;-80
2022/10/20 20:05:24;;;;;;;105.35;61.88;;;;;;;;;;9978425;28;20050;-81
2022/10/20 20:10:18;;;;;;;92.60;61.08;;;;;;;;;;9986272;28;20065;-79
2022/10/20 20:15:12;;;;;;;89.32;61.40;;;;;;;;;;9985617;28;20418;-78
2022/10/20 20:20:07;;;;;;;90.55;59.72;;;;;;;;;;9978766;28;20149;-78
2022/10/20 20:25:01;;;;;;;96.15;63.58;;;;;;;;;;9984439;28;20066;-80
2022/10/20 20:30:02;;;;;;;98.38;62.47;;;;;;;;;;9986314;28;20421;-80
2022/10/20 20:34:56;;;;;;;100.45;65.63;;;;;;;;;;9983317;28;20050;-88
2022/10/20 20:39:49;;;;;;;105.10;67.25;;;;;;;;;;9980565;28;20563;-82
2022/10/20 20:44:43;;;;;;;95.97;59.95;;;;;;;;;;9984483;28;20047;-80
2022/10/20 20:49:36;;;;;;;88.72;57.13;;;;;;;;;;9989580;28;20055;-82
2022/10/20 20:54:31;;;;;;;82.18;55.85;;;;;;;;;;9984998;28;20068;-82
2022/10/20 20:59:28;;;;;;;81.75;54.97;;;;;;;;;;9985169;28;20145;-81
2022/10/20 21:04:23;;;;;;;88.20;60.90;;;;;;;;;;9987638;28;20062;-81
2022/10/20 21:09:21;;;;;;;83.75;58.22;;;;;;;;;;9985289;28;20109;-80
2022/10/20 21:14:16;;;;;;;93.22;61.05;;;;;;;;;;9987359;28;20061;-81
2022/10/20 21:19:10;;;;;;;92.47;60.97;;;;;;;;;;9984744;28;20429;-80
2022/10/20 21:24:04;;;;;;;99.95;63.38;;;;;;;;;;9982376;28;20576;-79
2022/10/20 21:28:58;;;;;;;93.35;59.28;;;;;;;;;;9999516;28;20062;-84
2022/10/20 21:33:56;;;;;;;94.45;57.97;;;;;;;;;;9990448;28;20042;-82
2022/10/20 21:38:50;;;;;;;90.32;60.90;;;;;;;;;;9990851;28;20477;-81
2022/10/20 21:43:46;;;;;;;100.45;61.70;;;;;;;;;;9990859;28;20054;-81
2022/10/20 21:48:40;;;;;;;95.78;61.15;;;;;;;;;;9989551;28;20054;-82
2022/10/20 21:53:34;;;;;;;92.20;61.08;;;;;;;;;;9989919;28;20066;-82
2022/10/20 21:58:28;;;;;;;97.00;61.78;;;;;;;;;;9990078;28;20086;-80
2022/10/20 22:03:22;;;;;;;92.75;60.10;;;;;;;;;;9990849;28;20065;-83
2022/10/20 22:08:16;;;;;;;102.97;62.10;;;;;;;;;;9987032;28;20084;-79
2022/10/20 22:13:11;;;;;;;96.80;62.00;;;;;;;;;;9980776;28;20062;-78
2022/10/20 22:18:08;;;;;;;97.88;61.72;;;;;;;;;;9987840;28;20149;-79
2022/10/20 22:23:04;;;;;;;103.47;67.53;;;;;;;;;;9988952;28;20058;-78
2022/10/20 22:27:58;;;;;;;115.82;68.18;;;;;;;;;;9987877;28;20457;-79
2022/10/20 22:32:52;;;;;;;110.53;68.10;;;;;;;;;;9988660;28;20488;-79
2022/10/20 22:37:45;;;;;;;104.18;65.38;;;;;;;;;;9988091;28;20425;-79
2022/10/20 22:42:40;;;;;;;104.53;64.78;;;;;;;;;;9985704;28;20054;-78
2022/10/20 22:47:33;;;;;;;101.05;63.05;;;;;;;;;;9988024;28;20113;-78
2022/10/20 22:52:26;;;;;;;102.97;64.07;;;;;;;;;;9985817;28;20054;-76
2022/10/20 22:57:21;;;;;;;102.13;63.15;;;;;;;;;;9985302;28;20085;-76
2022/10/20 23:02:15;;;;;;;100.60;63.70;;;;;;;;;;9980273;28;20108;-77
2022/10/20 23:07:09;;;;;;;109.45;65.57;;;;;;;;;;9984983;28;20054;-77
2022/10/20 23:12:03;;;;;;;109.30;62.50;;;;;;;;;;9983018;28;20062;-79
2022/10/20 23:16:57;;;;;;;108.72;64.30;;;;;;;;;;9987375;28;20420;-78
2022/10/20 23:21:51;;;;;;;103.95;63.72;;;;;;;;;;9986125;28;20054;-78
2022/10/20 23:26:44;;;;;;;103.20;62.30;;;;;;;;;;9975975;28;20426;-78
2022/10/20 23:31:39;;;;;;;100.53;61.78;;;;;;;;;;9985086;28;20112;-78
2022/10/20 23:36:33;;;;;;;102.18;65.30;;;;;;;;;;9985783;28;20108;-77
2022/10/20 23:41:30;;;;;;;104.82;66.50;;;;;;;;;;9979017;28;20053;-77
2022/10/20 23:46:24;;;;;;;98.10;64.47;;;;;;;;;;9975398;28;20058;-78
2022/10/20 23:51:18;;;;;;;98.35;63.22;;;;;;;;;;9985246;28;20058;-78
2022/10/20 23:56:12;;;;;;;100.65;66.85;;;;;;;;;;9981983;28;20058;-77
